Aérodrome :
LOGIN :

S'inscrire | Disclaimer

   EN    FR    IT 

 










Légende :    VFR   VFR Marginal   IFR   IFR Intensif   IFR Très Intensif
Visi : 
Plafond : 
>= 8 km
>= 3000ft
5 à 8 km
1000 à 3000 ft
1500m à 5 km
500 à 1000 ft
800 à 1500m
200 à 500 ft
< 800m
< 200 ft
Symboles :   Orages  Brouillard  Fortes neiges  Fortes précipitations  Vent > 20 kt
SIGMETs :   Divers  Orages  Givrage  Turbulence  Onde Orograph.  Cendres Volcan.







- Altitude de l'aérodrome : 526 ft
- Code IATA : LTN
- Voir les cartes d'approche


EGGW - London Luton

DERNIER METAR :
  • 240120Z AUTO 20015G28KT 9999 OVC013 10/08 Q1011

METARs EXPIRÉS :
  • 240050Z AUTO 20014KT 9999 OVC012 10/08 Q1011
  • 240020Z AUTO 21016KT 9999 BKN011 10/08 Q1012
  • 232350Z AUTO 20014KT 9999 BKN011 10/08 Q1012
  • 232320Z AUTO 20013KT 9999 BKN010 10/09 Q1013
  • 232250Z AUTO 21012KT 9999 FEW012 SCT018 10/09 Q1013

TAF TAF EGGW
Valide du 24 à 00h jusqu'au 25 à 00h UTC


232305Z 2400/2424 23014KT 9999 SCT010
BECMG 2400/2403 20017G27KT
PROB30
TEMPO 2400/2406 22020G37KT BKN012
TEMPO 2406/2412 23020G37KT 6000 RA BKN014
PROB30
TEMPO 2409/2412 24035G47KT 4000 +RA BKN006
BECMG 2412/2414 23012KT
TEMPO 2412/2415 22017G27KT 6000 RA BKN012
PROB30
TEMPO 2415/2421 5000 SHRA BKN012
ATIS : +44 1582 395 204
Pas de NOTAMs connus pour ce terrain.
1 SIGMET publié pour la FIR London (EGTT) :
 
Turbulence forte
EGTT SIGMET 03 VALID 232330/240330 EGRR
EGTT LONDON FIR SEV TURB FCST WI N5100 W00800 - N5220 W00530 - N5426 W00530 - N5357 W00438 - N5146 W00503 - N4910 W00800 - N5100 W00800 SFC/FL060 MOV NE 45KT NC=



MET'MAP, la Météo Aéronautique d'un coup d'oeil ! - Copyright ORBIFLY Décembre 2007 - Disclaimer

ORBIFLY MET'MAP TEAM :

Programmation & Développement : Alexandra Zaïnal
Conception & Développement : Baudouin d'Aumeries
Co-Programmation & Développement : Marc-Olivier Méhu
Soutien technique & logistique : Manuel Goepfert

Contact : metmap@orbifly.com




SOURCES & CREDITS :

   NOAA